Time;durP1;ratioP1;P1;durP2;ratioP2;P2;SDS_P1;SDS_P2;PMS_P1;PMS_P2;Temp;Humidity;BMP_temperature;BMP_pressure;BME280_temperature;BME280_humidity;BME280_pressure;Samples;Min_cycle;Max_cycle;Signal;HPM_P1;HPM_P2
2021/09/13 00:01:56;;;;;;;5.82;2.47;;;;;;;10.09;48.70;95773.44;4990681;28;20030;-66
2021/09/13 00:04:22;;;;;;;4.50;2.40;;;;;;;10.08;48.29;95777.97;4989906;28;20100;-67
2021/09/13 00:06:47;;;;;;;3.90;2.30;;;;;;;10.05;47.88;95778.28;4989930;28;20034;-66
2021/09/13 00:09:13;;;;;;;3.40;2.40;;;;;;;10.03;48.21;95772.28;4989615;28;20102;-66
2021/09/13 00:11:38;;;;;;;3.53;2.20;;;;;;;10.02;48.05;95769.78;4985803;28;20053;-65
2021/09/13 00:14:03;;;;;;;2.90;2.33;;;;;;;10.02;47.40;95770.63;4990042;28;20623;-66
2021/09/13 00:16:29;;;;;;;2.88;2.20;;;;;;;9.94;47.63;95765.31;4972884;28;20053;-66
2021/09/13 00:18:54;;;;;;;3.45;2.20;;;;;;;9.89;47.30;95773.81;4969887;28;20063;-66
2021/09/13 00:21:20;;;;;;;4.00;2.03;;;;;;;9.91;47.23;95773.63;4969925;28;20041;-66
2021/09/13 00:23:45;;;;;;;3.88;2.10;;;;;;;9.88;47.02;95769.50;4968673;28;20046;-66
2021/09/13 00:26:11;;;;;;;3.47;2.10;;;;;;;9.82;46.69;95764.84;4970820;28;20031;-66
2021/09/13 00:28:36;;;;;;;2.85;1.70;;;;;;;9.76;47.26;95769.00;4970102;28;20041;-65
2021/09/13 00:31:01;;;;;;;2.88;1.80;;;;;;;9.72;46.90;95768.53;4969954;28;20042;-66
2021/09/13 00:33:27;;;;;;;2.75;1.88;;;;;;;9.72;47.12;95767.69;4970679;28;20035;-66
2021/09/13 00:35:53;;;;;;;3.08;2.30;;;;;;;9.75;47.21;95766.53;4968642;28;20042;-66
2021/09/13 00:38:18;;;;;;;4.85;2.50;;;;;;;9.71;47.78;95769.53;4970329;28;20043;-66
2021/09/13 00:40:43;;;;;;;3.13;2.33;;;;;;;9.69;47.70;95766.19;4970058;28;20034;-66
2021/09/13 00:43:09;;;;;;;2.40;2.22;;;;;;;9.67;48.13;95762.06;4968583;28;20035;-65
2021/09/13 00:45:34;;;;;;;4.78;2.80;;;;;;;9.69;48.08;95766.19;4970469;28;20034;-66
2021/09/13 00:48:00;;;;;;;4.18;2.60;;;;;;;9.70;48.50;95762.53;4969733;28;20062;-66
2021/09/13 00:50:25;;;;;;;5.30;2.67;;;;;;;9.75;48.87;95759.38;4969733;28;20035;-65
2021/09/13 00:52:52;;;;;;;6.18;3.85;;;;;;;9.59;51.08;95761.06;4970163;28;20109;-66
2021/09/13 00:55:18;;;;;;;5.97;3.60;;;;;;;9.56;52.45;95758.75;4969982;28;20066;-66
2021/09/13 00:57:44;;;;;;;3.40;3.10;;;;;;;9.66;51.76;95757.75;4968700;28;20049;-66
2021/09/13 01:00:10;;;;;;;3.15;2.85;;;;;;;9.75;50.60;95753.25;4968116;28;20038;-66
2021/09/13 01:02:36;;;;;;;4.78;3.60;;;;;;;9.78;50.25;95750.22;4969812;28;20037;-65
2021/09/13 01:05:01;;;;;;;8.30;3.20;;;;;;;9.80;50.46;95749.06;4969782;28;20841;-66
2021/09/13 01:07:26;;;;;;;3.92;3.00;;;;;;;9.82;49.75;95751.56;4969579;28;20049;-66
2021/09/13 01:09:52;;;;;;;4.03;3.10;;;;;;;9.81;49.78;95756.06;4967725;28;20536;-66
2021/09/13 01:12:17;;;;;;;4.05;2.92;;;;;;;9.87;49.31;95749.22;4964737;28;20133;-66
2021/09/13 01:14:43;;;;;;;3.67;3.20;;;;;;;9.93;49.03;95753.03;4952022;28;20456;-66
2021/09/13 01:17:09;;;;;;;6.20;4.03;;;;;;;9.90;50.37;95748.06;4969121;28;20044;-66
2021/09/13 01:19:34;;;;;;;6.25;4.38;;;;;;;9.89;50.80;95751.72;4967648;28;20034;-66
2021/09/13 01:22:01;;;;;;;8.18;4.93;;;;;;;9.93;51.13;95748.53;4964327;28;20342;-67
2021/09/13 01:24:29;;;;;;;7.60;5.13;;;;;;;9.87;51.03;95754.56;4960384;28;20129;-66
2021/09/13 01:27:08;;;;;;;8.63;4.70;;;;;;;9.84;50.99;95747.75;4968799;28;20117;-65
2021/09/13 01:29:34;;;;;;;8.20;4.95;;;;;;;9.96;50.08;95750.84;4969412;28;20400;-66
2021/09/13 01:31:59;;;;;;;5.07;4.05;;;;;;;9.89;51.28;95751.72;4967350;28;20039;-66
2021/09/13 01:34:25;;;;;;;8.32;5.00;;;;;;;9.88;52.77;95752.69;4968560;28;20035;-65
2021/09/13 01:36:50;;;;;;;7.95;4.88;;;;;;;9.92;52.99;95748.69;4969141;28;20027;-66
2021/09/13 01:39:16;;;;;;;10.52;5.03;;;;;;;10.01;51.42;95749.50;4967169;28;20089;-66
2021/09/13 01:41:43;;;;;;;7.53;5.00;;;;;;;10.04;51.14;95754.50;4967876;28;20066;-66
2021/09/13 01:44:09;;;;;;;8.85;5.28;;;;;;;10.08;51.74;95745.19;4968928;28;20682;-68
2021/09/13 01:46:35;;;;;;;9.00;6.68;;;;;;;10.12;51.81;95749.19;4967549;28;20488;-66
2021/09/13 01:49:00;;;;;;;9.05;5.85;;;;;;;10.19;51.50;95751.97;4969278;28;20034;-66
2021/09/13 01:51:25;;;;;;;9.52;6.38;;;;;;;10.17;51.94;95749.47;4968605;28;20035;-66
2021/09/13 01:53:51;;;;;;;10.45;5.55;;;;;;;10.16;52.88;95747.81;4969070;28;20031;-66
2021/09/13 01:56:16;;;;;;;10.57;6.50;;;;;;;10.16;53.36;95757.66;4968515;28;20046;-66
2021/09/13 01:58:42;;;;;;;12.57;6.35;;;;;;;10.21;54.10;95753.44;4962072;28;20050;-65
2021/09/13 02:01:07;;;;;;;11.60;7.22;;;;;;;10.27;53.58;95749.28;4968846;28;20027;-66
2021/09/13 02:03:32;;;;;;;11.75;8.52;;;;;;;10.30;53.45;95753.44;4968799;28;20484;-66
2021/09/13 02:05:58;;;;;;;11.65;7.47;;;;;;;10.40;52.89;95747.91;4969025;28;20035;-66
2021/09/13 02:08:23;;;;;;;12.57;8.43;;;;;;;10.38;53.27;95748.09;4968717;28;20038;-66
2021/09/13 02:10:49;;;;;;;10.18;6.20;;;;;;;10.49;53.01;95747.69;4963639;28;20046;-65
2021/09/13 02:13:15;;;;;;;10.98;7.22;;;;;;;10.45;53.16;95745.53;4968873;28;20054;-66
2021/09/13 02:15:40;;;;;;;11.27;7.43;;;;;;;10.37;53.20;95746.41;4960344;28;20379;-66
2021/09/13 02:18:05;;;;;;;9.23;6.53;;;;;;;10.53;52.01;95748.16;4961821;28;20039;-66
2021/09/13 02:20:31;;;;;;;8.00;6.22;;;;;;;10.57;52.24;95741.47;4968529;28;20046;-66
2021/09/13 02:22:56;;;;;;;9.95;6.55;;;;;;;10.56;52.12;95741.66;4957252;28;20047;-66
2021/09/13 02:25:22;;;;;;;11.27;7.22;;;;;;;10.60;51.91;95740.31;4967735;28;20093;-66
2021/09/13 02:27:47;;;;;;;12.23;6.80;;;;;;;10.57;51.75;95738.00;4968658;28;20121;-66
2021/09/13 02:30:12;;;;;;;12.55;7.50;;;;;;;10.51;51.89;95736.88;4968832;28;20085;-66
2021/09/13 02:32:38;;;;;;;12.60;7.57;;;;;;;10.50;52.30;95737.84;4968667;28;20567;-66
2021/09/13 02:35:05;;;;;;;14.98;8.82;;;;;;;10.38;52.49;95739.25;4968440;28;20031;-66
2021/09/13 02:37:34;;;;;;;9.73;7.20;;;;;;;10.39;52.46;95735.59;4969044;28;20867;-66
2021/09/13 02:40:00;;;;;;;14.93;8.43;;;;;;;10.45;53.12;95732.25;4966862;28;20081;-66
2021/09/13 02:42:25;;;;;;;11.10;6.75;;;;;;;10.52;52.68;95738.53;4966801;28;20050;-66
2021/09/13 02:44:50;;;;;;;10.52;6.55;;;;;;;10.53;51.54;95740.19;4969178;28;20027;-66
2021/09/13 02:47:16;;;;;;;8.88;5.68;;;;;;;10.55;51.26;95737.34;4971715;28;20054;-66
2021/09/13 02:49:41;;;;;;;8.45;5.93;;;;;;;10.52;50.59;95729.69;4971879;28;20038;-66
2021/09/13 02:52:07;;;;;;;8.88;6.05;;;;;;;10.48;49.99;95737.22;4971436;28;20049;-66
2021/09/13 02:54:32;;;;;;;7.30;5.45;;;;;;;10.39;50.10;95731.09;4971583;28;20403;-66
2021/09/13 02:56:57;;;;;;;9.10;5.97;;;;;;;10.37;50.22;95733.09;4965864;28;20456;-66
2021/09/13 02:59:23;;;;;;;9.10;5.93;;;;;;;10.35;50.35;95727.97;4969612;28;20049;-66
2021/09/13 03:01:48;;;;;;;8.73;6.57;;;;;;;10.37;49.94;95730.44;4972225;28;20034;-66
2021/09/13 03:04:14;;;;;;;8.32;6.10;;;;;;;10.34;50.26;95728.94;4971242;28;20130;-67
2021/09/13 03:06:40;;;;;;;11.30;7.47;;;;;;;10.28;51.69;95728.81;4971864;28;20054;-68
2021/09/13 03:09:05;;;;;;;11.05;7.15;;;;;;;10.28;51.51;95728.81;4970292;28;20023;-67
2021/09/13 03:11:31;;;;;;;10.73;6.45;;;;;;;10.36;50.72;95726.97;4949022;28;20035;-66
2021/09/13 03:13:57;;;;;;;10.00;7.03;;;;;;;10.39;51.18;95733.75;4971651;28;20070;-66
2021/09/13 03:16:22;;;;;;;9.65;6.85;;;;;;;10.33;51.52;95726.47;4963590;28;20397;-67
2021/09/13 03:18:47;;;;;;;12.60;6.85;;;;;;;10.32;51.63;95733.63;4971179;28;20042;-68
2021/09/13 03:21:13;;;;;;;10.13;7.38;;;;;;;10.36;51.70;95726.13;4970044;28;20399;-68
2021/09/13 03:23:38;;;;;;;11.77;8.27;;;;;;;10.31;52.97;95728.47;4971342;28;20039;-69
2021/09/13 03:26:04;;;;;;;11.20;8.15;;;;;;;10.34;53.23;95725.47;4970191;28;20034;-69
2021/09/13 03:28:29;;;;;;;12.02;7.47;;;;;;;10.32;52.59;95728.31;4965834;28;20039;-68
2021/09/13 03:30:55;;;;;;;8.47;6.53;;;;;;;10.39;51.85;95720.47;4961647;28;20499;-68
2021/09/13 03:33:20;;;;;;;10.98;6.20;;;;;;;10.45;51.82;95727.75;4971292;28;20066;-69
2021/09/13 03:35:45;;;;;;;8.40;6.15;;;;;;;10.44;51.25;95723.41;4971015;28;20047;-70
2021/09/13 03:38:11;;;;;;;8.23;6.15;;;;;;;10.40;50.99;95730.09;4971044;28;20046;-68
2021/09/13 03:40:36;;;;;;;8.27;5.38;;;;;;;10.37;50.72;95725.09;4969403;28;20042;-68
2021/09/13 03:43:02;;;;;;;8.57;5.68;;;;;;;10.29;50.36;95719.84;4969052;28;20152;-70
2021/09/13 03:45:27;;;;;;;7.13;5.50;;;;;;;10.23;50.59;95726.69;4968912;28;20098;-68
2021/09/13 03:47:52;;;;;;;7.40;5.30;;;;;;;10.15;50.69;95726.72;4970378;28;20111;-68
2021/09/13 03:50:18;;;;;;;9.60;6.20;;;;;;;10.08;51.11;95729.25;4971278;28;20053;-70
2021/09/13 03:52:43;;;;;;;9.07;5.90;;;;;;;10.05;52.41;95724.22;4970235;28;20038;-70
2021/09/13 03:55:09;;;;;;;8.57;5.80;;;;;;;9.98;53.18;95730.25;4970808;28;20039;-68
2021/09/13 03:57:34;;;;;;;7.45;5.60;;;;;;;10.01;51.39;95723.75;4962320;28;20098;-69
2021/09/13 04:00:00;;;;;;;9.45;6.50;;;;;;;9.94;51.70;95736.91;4969280;28;20106;-70
2021/09/13 04:02:27;;;;;;;9.77;7.53;;;;;;;9.97;51.94;95735.75;4970262;28;20536;-68
2021/09/13 04:04:52;;;;;;;8.40;6.20;;;;;;;9.97;51.71;95725.91;4969397;28;20548;-69
2021/09/13 04:10:00;;;;;;;7.20;5.25;;;;;;;10.00;51.00;95727.41;4970170;28;20562;-67
2021/09/13 04:12:26;;;;;;;14.25;8.30;;;;;;;9.95;51.70;95733.25;4968069;28;20700;-69
2021/09/13 04:14:51;;;;;;;14.18;9.68;;;;;;;10.02;52.80;95733.38;4963654;28;20122;-70
2021/09/13 04:17:16;;;;;;;18.33;10.68;;;;;;;10.08;53.62;95732.75;4968998;28;20091;-69
2021/09/13 04:19:42;;;;;;;13.68;8.70;;;;;;;10.23;52.76;95734.66;4970619;28;20111;-67
2021/09/13 04:22:08;;;;;;;11.70;8.88;;;;;;;10.28;53.11;95726.16;4970875;28;20595;-69
2021/09/13 04:24:34;;;;;;;14.60;7.90;;;;;;;10.37;53.18;95725.09;4969144;28;20049;-68
2021/09/13 04:26:59;;;;;;;17.30;10.25;;;;;;;10.43;52.74;95721.75;4961350;28;20042;-70
2021/09/13 04:29:24;;;;;;;15.98;10.15;;;;;;;10.42;52.58;95724.59;4990038;28;20038;-70
2021/09/13 04:31:50;;;;;;;13.00;8.73;;;;;;;10.53;52.61;95726.88;4987887;28;20054;-67
2021/09/13 04:34:15;;;;;;;16.48;10.88;;;;;;;10.41;53.13;95728.28;4989838;28;20611;-68
2021/09/13 04:36:41;;;;;;;10.38;7.30;;;;;;;10.52;52.42;95725.22;4989531;28;20042;-70
2021/09/13 04:39:06;;;;;;;10.88;7.32;;;;;;;10.55;51.42;95718.72;4989071;28;20050;-66
2021/09/13 04:41:32;;;;;;;10.35;7.22;;;;;;;10.53;51.13;95726.03;4990071;28;20030;-67
2021/09/13 04:43:57;;;;;;;10.63;6.32;;;;;;;10.46;51.06;95725.91;4989070;28;20554;-66
2021/09/13 04:46:23;;;;;;;9.15;6.20;;;;;;;10.40;50.34;95723.97;4988890;28;20520;-66
2021/09/13 04:48:48;;;;;;;8.85;5.50;;;;;;;10.31;51.54;95721.34;4989389;28;20034;-67
2021/09/13 04:51:13;;;;;;;8.98;7.05;;;;;;;10.26;50.38;95721.00;4989011;28;20092;-66
2021/09/13 04:53:39;;;;;;;10.55;7.28;;;;;;;10.23;50.37;95721.34;4988018;28;20025;-66
2021/09/13 04:56:04;;;;;;;9.50;6.60;;;;;;;10.18;50.19;95719.22;4988818;28;20104;-66
2021/09/13 04:58:30;;;;;;;8.77;6.15;;;;;;;10.16;50.21;95731.06;4988845;28;20075;-66
2021/09/13 05:00:55;;;;;;;7.35;5.63;;;;;;;10.14;49.94;95725.91;4989100;28;20094;-66
2021/09/13 05:03:21;;;;;;;7.30;5.70;;;;;;;10.13;49.18;95724.22;4989043;28;20109;-66
2021/09/13 05:05:46;;;;;;;8.20;6.07;;;;;;;10.12;49.06;95722.56;4989329;28;20075;-66
2021/09/13 05:08:12;;;;;;;8.27;6.72;;;;;;;10.09;49.11;95720.25;4988194;28;20599;-66
2021/09/13 05:10:37;;;;;;;11.55;7.40;;;;;;;10.04;49.49;95733.22;4982985;28;20389;-66
2021/09/13 05:13:03;;;;;;;11.38;6.93;;;;;;;9.89;50.48;95731.25;4988800;28;20522;-66
2021/09/13 05:15:28;;;;;;;9.98;6.22;;;;;;;9.91;50.16;95736.41;4988704;28;20042;-66
2021/09/13 05:17:53;;;;;;;10.07;7.30;;;;;;;9.92;49.93;95728.25;4989247;28;20046;-66
2021/09/13 05:20:19;;;;;;;8.20;5.63;;;;;;;9.97;49.45;95733.06;4988609;28;20042;-66
2021/09/13 05:22:44;;;;;;;7.68;5.70;;;;;;;10.00;49.43;95734.56;4978664;28;20042;-66
2021/09/13 05:25:10;;;;;;;7.25;5.40;;;;;;;10.00;48.86;95743.38;4986147;28;20117;-66
2021/09/13 05:27:35;;;;;;;9.45;6.00;;;;;;;10.04;48.93;95739.38;4987464;28;20073;-66
2021/09/13 05:30:01;;;;;;;8.20;6.55;;;;;;;10.07;49.38;95738.22;4967844;28;20027;-66
2021/09/13 05:32:27;;;;;;;8.63;5.57;;;;;;;10.07;49.15;95741.69;4970338;28;20086;-66
2021/09/13 05:34:53;;;;;;;7.63;5.60;;;;;;;10.08;49.46;95742.53;4972922;28;20460;-66
2021/09/13 05:37:18;;;;;;;7.65;5.72;;;;;;;10.09;48.90;95746.84;4988892;28;20090;-66
2021/09/13 05:39:44;;;;;;;8.52;5.43;;;;;;;10.13;49.16;95756.16;4988467;28;20103;-66
2021/09/13 05:42:10;;;;;;;9.88;6.75;;;;;;;10.18;48.98;95755.63;4988840;28;20079;-66
2021/09/13 05:44:35;;;;;;;9.32;6.95;;;;;;;10.27;49.01;95756.44;4987786;28;20058;-67
2021/09/13 05:47:01;;;;;;;9.98;6.65;;;;;;;10.29;49.01;95762.41;4986683;28;20061;-67
2021/09/13 05:49:26;;;;;;;8.57;5.78;;;;;;;10.34;48.90;95762.75;4988286;28;20097;-67
2021/09/13 05:51:52;;;;;;;8.70;5.95;;;;;;;10.42;48.80;95761.84;4988331;28;20046;-67
2021/09/13 05:54:24;;;;;;;8.30;5.93;;;;;;;10.48;49.05;95761.97;4988784;28;20037;-67
2021/09/13 05:56:50;;;;;;;7.18;5.57;;;;;;;10.59;48.63;95758.13;4968025;28;20476;-67
2021/09/13 05:59:16;;;;;;;6.88;5.22;;;;;;;10.66;48.18;95762.72;4976265;28;20038;-67
2021/09/13 06:01:42;;;;;;;6.97;5.30;;;;;;;10.73;48.05;95764.53;4987291;28;20037;-67
2021/09/13 06:04:07;;;;;;;8.52;5.45;;;;;;;10.81;48.09;95765.50;4987224;28;20030;-67
2021/09/13 06:06:33;;;;;;;16.10;11.30;;;;;;;10.67;52.44;95764.41;4957188;28;20031;-66
2021/09/13 06:08:58;;;;;;;17.40;13.35;;;;;;;10.53;54.81;95769.47;4982499;28;20034;-67
2021/09/13 06:11:26;;;;;;;22.45;18.23;;;;;;;10.56;55.25;95763.78;4982937;28;20407;-67
2021/09/13 06:13:52;;;;;;;21.27;18.27;;;;;;;10.68;55.30;95764.22;4982394;28;20066;-66
2021/09/13 06:16:18;;;;;;;20.33;16.65;;;;;;;10.87;54.70;95770.09;4968994;28;20038;-67
2021/09/13 06:18:43;;;;;;;20.90;15.23;;;;;;;11.06;53.79;95768.00;4965408;28;20086;-66
2021/09/13 06:21:09;;;;;;;18.15;13.95;;;;;;;11.21;53.15;95776.06;4969443;28;20110;-67
2021/09/13 06:23:34;;;;;;;15.18;12.43;;;;;;;11.38;52.11;95766.09;4968650;28;20121;-67
2021/09/13 06:26:00;;;;;;;16.33;11.57;;;;;;;11.58;51.44;95777.09;4969471;28;20632;-67
2021/09/13 06:28:25;;;;;;;17.45;12.02;;;;;;;11.73;50.63;95770.97;4968265;28;20062;-66
2021/09/13 06:30:50;;;;;;;20.80;14.95;;;;;;;11.89;50.14;95777.97;4968982;28;20102;-66
2021/09/13 06:33:17;;;;;;;22.58;17.05;;;;;;;12.06;49.65;95770.66;4969230;28;20181;-66
2021/09/13 06:35:42;;;;;;;28.50;19.13;;;;;;;12.25;49.11;95784.47;4968834;28;20150;-66
2021/09/13 06:38:08;;;;;;;22.80;17.75;;;;;;;12.47;48.71;95776.53;4968264;28;20833;-66
2021/09/13 06:40:33;;;;;;;23.65;16.55;;;;;;;12.65;48.42;95784.97;4968849;28;20107;-66
2021/09/13 06:42:59;;;;;;;20.17;14.75;;;;;;;12.87;47.80;95786.84;4968508;28;20107;-66
2021/09/13 06:45:24;;;;;;;18.55;13.65;;;;;;;13.02;47.37;95792.22;4968978;28;20039;-66
2021/09/13 06:47:50;;;;;;;18.30;13.15;;;;;;;13.11;47.19;95788.38;4968070;28;20177;-66
2021/09/13 06:50:23;;;;;;;16.52;12.05;;;;;;;13.25;47.36;95788.50;4951374;28;20090;-66
2021/09/13 06:52:49;;;;;;;17.15;11.95;;;;;;;13.39;46.78;95786.78;4968079;28;20119;-66
2021/09/13 06:55:15;;;;;;;16.55;11.52;;;;;;;13.46;46.89;95797.56;4968156;28;20617;-67
2021/09/13 06:57:40;;;;;;;17.63;11.70;;;;;;;13.53;46.73;95799.25;4961206;28;20125;-66
2021/09/13 07:00:08;;;;;;;16.92;12.32;;;;;;;13.64;46.50;95795.25;4968194;28;20122;-66
2021/09/13 07:02:34;;;;;;;;;;;;;;;13.78;46.44;95801.53;4966192;28;20178;-66
2021/09/13 07:05:00;;;;;;;19.60;14.00;;;;;;;13.98;46.20;95805.41;4966645;28;20061;-66
2021/09/13 07:07:25;;;;;;;21.90;14.95;;;;;;;14.10;46.01;95809.19;4968028;28;20354;-66
2021/09/13 07:09:51;;;;;;;31.88;23.33;;;;;;;14.18;45.43;95806.34;4964066;28;20039;-66
2021/09/13 07:12:19;;;;;;;34.88;26.77;;;;;;;14.35;45.46;95800.69;4962305;28;20138;-66
2021/09/13 07:14:44;;;;;;;;;;;;;;;14.50;45.19;95795.22;4963688;28;20557;-66
2021/09/13 07:17:09;;;;;;;32.70;23.40;;;;;;;14.62;45.01;95800.00;4964659;28;19981;-67
2021/09/13 07:19:35;;;;;;;27.85;20.25;;;;;;;;;;4964667;28;20045;-66
2021/09/13 07:22:00;;;;;;;25.03;18.13;;;;;;;14.99;44.04;95797.88;4965109;28;20058;-66
2021/09/13 07:24:25;;;;;;;24.00;16.52;;;;;;;15.17;44.72;95802.69;4965036;28;20043;-66
2021/09/13 07:26:51;;;;;;;20.20;14.73;;;;;;;15.34;44.25;95799.63;4964160;28;20504;-66
2021/09/13 07:29:16;;;;;;;19.67;15.02;;;;;;;15.51;43.01;95801.91;4964550;28;20529;-66
2021/09/13 07:31:42;;;;;;;20.45;14.00;;;;;;;15.78;42.78;95805.47;4962512;28;20347;-66
2021/09/13 07:34:07;;;;;;;18.17;13.02;;;;;;;16.02;42.26;95799.66;4964865;28;20045;-66
2021/09/13 07:36:33;;;;;;;18.50;13.48;;;;;;;16.25;42.02;95800.03;4963823;28;20093;-66
2021/09/13 07:38:59;;;;;;;17.67;12.52;;;;;;;16.54;42.43;95798.94;4964202;28;20092;-66
2021/09/13 07:41:24;;;;;;;21.23;13.23;;;;;;;16.55;41.85;95801.41;4964746;28;20079;-66
2021/09/13 07:43:50;;;;;;;17.60;13.18;;;;;;;16.70;41.51;95798.50;4964601;28;20514;-65
2021/09/13 07:46:15;;;;;;;20.20;13.63;;;;;;;17.07;41.67;95808.66;4963938;28;20491;-65
2021/09/13 07:48:41;;;;;;;26.30;20.25;;;;;;;17.17;40.16;95802.84;4964396;28;20394;-65
2021/09/13 07:51:06;;;;;;;35.33;27.48;;;;;;;17.31;40.10;95810.84;4963465;28;20050;-66
2021/09/13 07:53:31;;;;;;;25.42;19.38;;;;;;;17.49;39.69;95812.78;4964823;28;20272;-65
2021/09/13 07:55:57;;;;;;;32.85;24.88;;;;;;;17.40;39.44;95814.91;4963553;28;20038;-66
2021/09/13 07:58:22;;;;;;;29.02;21.08;;;;;;;17.51;39.62;95814.22;4957988;28;20031;-65
2021/09/13 08:00:48;;;;;;;26.50;20.52;;;;;;;17.57;39.52;95822.47;4960235;28;20121;-65
2021/09/13 08:03:13;;;;;;;26.38;19.50;;;;;;;17.51;39.50;95816.91;4963137;28;20031;-66
2021/09/13 08:05:39;;;;;;;19.13;12.18;;;;;;;17.71;37.86;95813.22;4964168;28;20034;-76
2021/09/13 08:08:04;;;;;;;20.02;15.43;;;;;;;17.95;38.06;95821.56;4971857;28;20045;-75
2021/09/13 08:10:30;;;;;;;19.85;14.60;;;;;;;17.14;39.52;95820.22;4926160;28;20142;-76
2021/09/13 08:12:55;;;;;;;16.73;11.68;;;;;;;17.43;38.34;95822.53;4982033;28;20050;-78
2021/09/13 08:15:23;;;;;;;15.85;10.45;;;;;;;17.84;39.46;95833.03;4982574;28;20110;-77
2021/09/13 08:17:48;;;;;;;25.80;19.10;;;;;;;17.94;38.36;95833.38;4983558;28;20470;-76
2021/09/13 08:20:14;;;;;;;24.05;15.90;;;;;;;18.08;38.33;95828.69;4965172;28;20153;-76
2021/09/13 08:22:39;;;;;;;17.20;12.65;;;;;;;18.29;37.45;95832.84;4964210;28;20027;-76
2021/09/13 08:25:05;;;;;;;20.05;13.30;;;;;;;18.58;36.97;95832.41;4983027;28;20042;-76
2021/09/13 08:27:30;;;;;;;11.45;8.90;;;;;;;18.66;35.13;95828.59;4980294;28;20042;-76
2021/09/13 08:29:56;;;;;;;16.17;10.77;;;;;;;18.73;36.75;95836.59;4965067;28;20106;-76
2021/09/13 08:32:21;;;;;;;13.18;8.57;;;;;;;19.06;35.72;95838.88;4948664;28;20046;-76
2021/09/13 08:34:47;;;;;;;15.90;11.45;;;;;;;19.19;34.95;95843.28;4965297;28;20042;-76
2021/09/13 08:37:12;;;;;;;14.75;11.07;;;;;;;19.20;34.83;95844.94;4946581;28;20030;-76
2021/09/13 08:39:38;;;;;;;16.60;11.13;;;;;;;18.97;36.00;95851.06;4954030;28;20043;-76
2021/09/13 08:42:03;;;;;;;15.45;11.88;;;;;;;18.92;35.57;95845.50;4981767;28;20077;-76
2021/09/13 08:44:31;;;;;;;13.27;9.10;;;;;;;19.23;35.61;95849.03;4981800;28;20042;-78
2021/09/13 08:47:07;;;;;;;16.95;10.88;;;;;;;19.19;36.02;95845.16;4984813;28;20062;-78
2021/09/13 08:49:35;;;;;;;13.98;10.82;;;;;;;19.30;34.83;95847.13;4957205;28;20209;-78
2021/09/13 08:52:03;;;;;;;16.55;10.65;;;;;;;19.57;34.76;95840.50;4965677;28;20038;-78
2021/09/13 08:54:31;;;;;;;12.48;8.98;;;;;;;19.45;34.85;95846.69;4955655;28;20106;-79
2021/09/13 08:57:00;;;;;;;9.85;7.18;;;;;;;19.48;33.99;95833.78;4992107;28;20098;-79
2021/09/13 08:59:26;;;;;;;10.70;8.07;;;;;;;20.08;32.84;95838.28;4990968;28;20144;-79
2021/09/13 09:01:52;;;;;;;15.15;9.98;;;;;;;20.26;33.08;95850.03;4970563;28;20511;-77
2021/09/13 09:04:18;;;;;;;8.98;6.68;;;;;;;20.56;32.91;95851.78;4986247;28;20030;-78
2021/09/13 09:06:44;;;;;;;10.00;6.95;;;;;;;20.92;31.65;95849.06;4958458;28;20056;-78
2021/09/13 09:09:20;;;;;;;13.38;9.15;;;;;;;20.85;31.66;95843.78;4983800;28;20104;-77
2021/09/13 09:12:01;;;;;;;10.70;8.27;;;;;;;20.92;31.49;95840.94;4984525;28;20042;-78
2021/09/13 09:14:35;;;;;;;14.15;9.98;;;;;;;20.89;32.70;95840.56;4981851;28;20162;-77
2021/09/13 09:17:02;;;;;;;14.10;10.98;;;;;;;20.87;32.25;95838.94;4985934;28;20132;-77
2021/09/13 09:19:28;;;;;;;11.15;7.60;;;;;;;21.00;32.12;95843.25;4984167;28;20392;-78
2021/09/13 09:21:53;;;;;;;12.20;9.20;;;;;;;20.84;31.98;95844.03;4939489;28;20035;-65
2021/09/13 09:24:19;;;;;;;12.35;8.35;;;;;;;20.90;31.75;95842.25;4980147;28;20065;-65
2021/09/13 09:27:01;;;;;;;12.30;8.88;;;;;;;20.88;32.21;95850.59;4981869;28;20061;-65
2021/09/13 09:29:30;;;;;;;15.57;10.25;;;;;;;20.83;32.02;95845.91;4984789;28;20049;-65
2021/09/13 09:31:57;;;;;;;11.90;8.77;;;;;;;20.85;32.06;95856.47;4975937;28;20590;-65
2021/09/13 09:34:26;;;;;;;11.75;9.48;;;;;;;20.83;32.40;95848.59;4984142;28;20030;-65
2021/09/13 09:36:57;;;;;;;9.73;7.90;;;;;;;21.05;31.38;95850.66;4966579;28;20056;-66
2021/09/13 09:39:23;;;;;;;11.85;9.18;;;;;;;21.04;31.29;95849.00;4984046;28;20124;-65
2021/09/13 09:41:48;;;;;;;11.25;9.18;;;;;;;21.15;30.83;95841.94;4966603;28;20129;-65
2021/09/13 09:44:14;;;;;;;14.48;8.70;;;;;;;20.59;30.81;95842.38;4981288;28;20034;-65
2021/09/13 09:46:41;;;;;;;10.00;6.57;;;;;;;20.83;30.80;95847.75;4962357;28;20034;-65
2021/09/13 09:49:36;;;;;;;11.35;8.57;;;;;;;20.86;31.61;95850.84;4978998;28;20042;-65
2021/09/13 09:52:01;;;;;;;15.80;9.52;;;;;;;20.73;32.32;95849.22;4977497;28;20034;-65
2021/09/13 09:54:28;;;;;;;10.20;7.38;;;;;;;20.90;31.59;95839.53;4981693;28;20026;-65
2021/09/13 09:57:00;;;;;;;13.35;7.85;;;;;;;21.07;31.22;95837.72;4984915;28;20038;-64
2021/09/13 09:59:34;;;;;;;11.65;7.40;;;;;;;20.70;31.37;95848.88;4976544;28;20039;-64
2021/09/13 10:02:00;;;;;;;11.90;8.10;;;;;;;20.91;31.27;95836.59;4965359;28;20031;-64
2021/09/13 10:04:28;;;;;;;10.20;8.35;;;;;;;20.68;31.99;95843.69;4981058;28;20233;-65
2021/09/13 10:06:55;;;;;;;10.45;7.82;;;;;;;20.76;31.91;95839.78;4982915;28;20183;-65
2021/09/13 10:09:21;;;;;;;12.88;8.43;;;;;;;20.88;31.32;95839.78;4984633;28;20122;-65
2021/09/13 10:11:47;;;;;;;8.82;6.65;;;;;;;20.83;31.25;95835.06;4978959;28;20039;-65
2021/09/13 10:14:15;;;;;;;9.97;7.40;;;;;;;20.82;31.38;95836.16;4982635;28;20108;-65
2021/09/13 10:16:41;;;;;;;12.07;8.48;;;;;;;20.66;32.43;95824.16;4982546;28;20300;-65
2021/09/13 10:19:07;;;;;;;9.50;7.13;;;;;;;20.79;31.73;95816.84;4984442;28;20042;-64
2021/09/13 10:21:33;;;;;;;10.25;7.82;;;;;;;20.78;32.02;95821.44;4984406;28;20550;-64
2021/09/13 10:24:00;;;;;;;9.57;7.05;;;;;;;20.86;31.95;95821.06;4983423;28;20529;-64
2021/09/13 10:26:25;;;;;;;7.78;5.70;;;;;;;21.02;30.74;95821.38;4981615;28;20374;-64
2021/09/13 10:29:03;;;;;;;7.75;5.40;;;;;;;21.00;31.07;95805.38;4984225;28;20037;-65
2021/09/13 10:31:45;;;;;;;8.80;7.15;;;;;;;21.05;31.43;95818.19;4977111;28;20050;-65
2021/09/13 10:34:19;;;;;;;8.98;6.13;;;;;;;20.93;31.93;95818.22;4984629;28;20221;-65
2021/09/13 10:37:01;;;;;;;8.50;5.82;;;;;;;21.10;31.77;95818.28;4983440;28;20460;-65
2021/09/13 10:40:11;;;;;;;9.18;6.30;;;;;;;21.36;32.11;95815.28;4982553;28;20038;-65
2021/09/13 10:42:43;;;;;;;9.55;6.50;;;;;;;21.53;31.35;95806.34;4975512;28;20416;-65
2021/09/13 10:45:22;;;;;;;9.80;5.93;;;;;;;21.53;31.15;95803.63;4982774;28;20583;-65
2021/09/13 10:48:01;;;;;;;8.43;5.93;;;;;;;21.53;31.06;95804.47;4983439;28;20136;-65
2021/09/13 10:50:32;;;;;;;9.73;6.20;;;;;;;21.69;30.71;95805.53;4982445;28;20043;-65
2021/09/13 10:52:58;;;;;;;8.00;5.30;;;;;;;21.96;30.63;95798.69;4984068;28;20181;-65
2021/09/13 10:55:24;;;;;;;6.07;4.50;;;;;;;22.56;29.27;95804.44;4982264;28;20125;-65
2021/09/13 10:57:49;;;;;;;9.63;6.93;;;;;;;22.37;29.67;95804.69;4983877;28;20071;-65
2021/09/13 11:00:15;;;;;;;6.83;5.40;;;;;;;22.37;29.19;95798.47;4983742;28;20049;-65
2021/09/13 11:02:40;;;;;;;9.80;6.47;;;;;;;22.38;29.22;95792.81;4983864;28;20165;-65
2021/09/13 11:05:18;;;;;;;6.38;4.90;;;;;;;22.75;29.00;95799.53;4984030;28;20045;-65
2021/09/13 11:08:22;;;;;;;8.48;5.93;;;;;;;22.78;28.97;95803.63;4980864;28;20464;-65
2021/09/13 11:10:47;;;;;;;9.23;5.07;;;;;;;22.95;28.98;95800.88;4978126;28;20399;-65
2021/09/13 11:13:15;;;;;;;10.02;6.85;;;;;;;22.60;29.08;95802.88;4983879;28;20047;-65
2021/09/13 11:15:49;;;;;;;8.30;6.20;;;;;;;22.71;29.07;95803.00;4972651;28;20491;-65
2021/09/13 11:18:33;;;;;;;7.57;5.10;;;;;;;23.02;28.27;95800.66;4964067;28;20034;-65
2021/09/13 11:21:21;;;;;;;7.82;6.30;;;;;;;22.94;28.99;95801.91;4980511;28;20050;-65
2021/09/13 11:23:50;;;;;;;8.77;5.13;;;;;;;23.15;28.19;95799.47;4981695;28;20041;-64
2021/09/13 11:26:36;;;;;;;8.23;5.40;;;;;;;23.12;28.37;95792.59;4980526;28;20037;-65
2021/09/13 11:29:03;;;;;;;6.97;5.22;;;;;;;23.49;28.51;95790.31;4977042;28;20894;-64
2021/09/13 11:31:37;;;;;;;7.72;5.30;;;;;;;23.61;27.87;95792.84;4983470;28;20042;-65